Time;durP1;ratioP1;P1;durP2;ratioP2;P2;SDS_P1;SDS_P2;PMS_P1;PMS_P2;Temp;Humidity;BMP_temperature;BMP_pressure;BME280_temperature;BME280_humidity;BME280_pressure;Samples;Min_cycle;Max_cycle;Signal;HPM_P1;HPM_P2
2024/04/07 00:00:30;;;;;;;5.05;2.65;;;;;;;14.85;54.75;99486.81;10394123;28;20528;-59
2024/04/07 00:05:31;;;;;;;6.53;2.10;;;;;;;14.94;54.30;99482.56;10392395;28;20356;-59
2024/04/07 00:10:35;;;;;;;4.78;1.80;;;;;;;14.89;54.34;99492.66;10358116;28;20414;-59
2024/04/07 00:15:36;;;;;;;7.97;2.13;;;;;;;14.90;54.52;99481.16;10391087;28;20062;-59
2024/04/07 00:20:38;;;;;;;6.28;2.10;;;;;;;14.85;54.50;99483.34;10373707;28;20045;-59
2024/04/07 00:25:40;;;;;;;6.60;2.40;;;;;;;14.65;54.75;99482.38;10390853;28;20436;-59
2024/04/07 00:30:41;;;;;;;3.85;1.98;;;;;;;14.66;54.54;99462.16;10391036;28;20072;-59
2024/04/07 00:35:59;;;;;;;4.78;2.10;;;;;;;14.63;54.95;99467.69;10375562;28;20204;-59
2024/04/07 00:41:00;;;;;;;3.90;2.42;;;;;;;14.55;54.75;99477.03;10374716;28;20054;-59
2024/04/07 00:46:01;;;;;;;6.70;2.60;;;;;;;14.42;55.04;99480.78;10386486;28;20908;-59
2024/04/07 00:51:03;;;;;;;4.75;2.33;;;;;;;14.27;55.21;99479.41;10388521;28;20148;-59
2024/04/07 00:56:04;;;;;;;3.80;1.85;;;;;;;14.10;55.18;99480.81;10373225;28;20049;-59
2024/04/07 01:01:05;;;;;;;4.38;2.60;;;;;;;14.10;55.30;99479.97;10391142;28;20054;-59
2024/04/07 01:06:06;;;;;;;5.60;2.80;;;;;;;14.14;55.39;99474.34;10375892;28;20045;-59
2024/04/07 01:11:06;;;;;;;7.30;2.95;;;;;;;14.09;55.82;99475.66;10362734;28;20044;-59
2024/04/07 01:16:07;;;;;;;5.68;1.95;;;;;;;13.99;55.91;99483.47;10385673;28;20064;-59
2024/04/07 01:21:08;;;;;;;4.13;2.20;;;;;;;14.00;55.96;99489.56;10390661;28;20041;-59
2024/04/07 01:26:09;;;;;;;4.22;2.20;;;;;;;13.99;56.30;99478.19;10389399;28;20215;-59
2024/04/07 01:31:11;;;;;;;3.08;1.90;;;;;;;14.00;55.97;99490.41;10390426;28;20456;-59
2024/04/07 01:36:12;;;;;;;5.82;2.28;;;;;;;13.97;55.67;99495.03;10372509;28;20041;-59
2024/04/07 01:41:12;;;;;;;5.63;2.58;;;;;;;13.90;55.98;99483.38;10387205;28;20079;-59
2024/04/07 01:46:13;;;;;;;6.03;1.83;;;;;;;13.94;55.73;99493.53;10387724;28;20049;-59
2024/04/07 01:51:14;;;;;;;3.10;1.90;;;;;;;14.03;55.38;99490.13;10388104;28;20053;-59
2024/04/07 01:56:16;;;;;;;5.82;2.20;;;;;;;13.93;55.11;99483.94;10386252;28;20037;-59
2024/04/07 02:01:17;;;;;;;5.95;2.42;;;;;;;13.58;56.17;99485.91;10369978;28;20107;-59
2024/04/07 02:06:18;;;;;;;10.02;2.63;;;;;;;13.25;57.17;99491.19;10371159;28;20131;-59
2024/04/07 02:11:19;;;;;;;9.43;3.20;;;;;;;13.04;58.01;99498.06;10386594;28;20152;-59
2024/04/07 02:16:20;;;;;;;6.10;2.00;;;;;;;12.97;58.41;99502.94;10386474;28;20054;-59
2024/04/07 02:21:20;;;;;;;5.13;2.10;;;;;;;13.02;58.23;99513.09;10373407;28;20037;-59
2024/04/07 02:26:21;;;;;;;4.50;1.80;;;;;;;13.23;58.05;99532.47;10385839;28;20092;-59
2024/04/07 02:31:23;;;;;;;3.50;1.80;;;;;;;13.28;57.95;99541.66;10388967;28;20083;-59
2024/04/07 02:36:24;;;;;;;7.50;2.17;;;;;;;13.26;57.98;99540.09;10369611;28;20406;-60
2024/04/07 02:41:25;;;;;;;6.88;2.17;;;;;;;13.26;58.01;99550.59;10367615;28;20082;-59
2024/04/07 02:51:45;;;;;;;2.72;1.50;;;;;;;13.46;57.98;99542.91;10381355;28;20072;-59
2024/04/07 02:56:46;;;;;;;3.08;1.70;;;;;;;13.51;57.78;99535.50;10386577;28;20041;-59
2024/04/07 03:01:47;;;;;;;7.70;2.17;;;;;;;13.64;57.47;99536.19;10370759;28;20307;-59
2024/04/07 03:06:51;;;;;;;3.55;1.73;;;;;;;13.66;57.20;99549.22;10373171;28;20037;-59
2024/04/07 03:11:52;;;;;;;3.30;1.75;;;;;;;13.64;57.50;99561.63;10392199;28;20041;-59
2024/04/07 03:16:53;;;;;;;4.57;1.70;;;;;;;13.60;57.67;99560.19;10394409;28;20045;-59
2024/04/07 03:21:54;;;;;;;3.70;2.15;;;;;;;13.73;57.28;99576.69;10394308;28;20097;-59
2024/04/07 03:26:55;;;;;;;3.58;1.95;;;;;;;13.90;56.95;99570.13;10393905;28;20049;-59
2024/04/07 03:31:56;;;;;;;3.20;1.60;;;;;;;13.77;57.09;99578.13;10396110;28;20300;-59
2024/04/07 03:36:57;;;;;;;6.72;2.20;;;;;;;13.43;57.90;99592.22;10393921;28;20042;-59
2024/04/07 03:42:00;;;;;;;4.38;2.15;;;;;;;13.50;57.41;99630.19;10377654;28;20045;-60
2024/04/07 03:47:01;;;;;;;5.20;2.25;;;;;;;13.57;57.73;99626.16;10393009;28;20056;-59
2024/04/07 03:52:02;;;;;;;6.35;2.03;;;;;;;13.43;57.86;99648.19;10390347;28;20068;-59
2024/04/07 03:57:03;;;;;;;3.47;1.45;;;;;;;13.85;56.38;99653.75;10392975;28;20065;-60
2024/04/07 04:02:04;;;;;;;2.42;1.55;;;;;;;14.37;54.58;99665.31;10392682;28;20510;-59
2024/04/07 04:07:05;;;;;;;5.18;1.20;;;;;;;14.97;53.01;99661.38;10377227;28;20049;-60
2024/04/07 04:12:06;;;;;;;7.10;1.60;;;;;;;15.35;52.04;99667.78;10390589;28;20488;-59
2024/04/07 04:17:07;;;;;;;5.75;1.70;;;;;;;15.43;51.85;99665.31;10392701;28;20041;-60
2024/04/07 04:22:08;;;;;;;1.58;1.00;;;;;;;15.87;48.76;99666.03;10375811;28;20041;-59
2024/04/07 04:27:11;;;;;;;3.83;1.17;;;;;;;16.17;47.57;99674.78;10391285;28;20063;-59
2024/04/07 04:32:12;;;;;;;2.00;0.77;;;;;;;16.66;45.94;99696.91;10373714;28;20034;-59
2024/04/07 04:37:13;;;;;;;3.22;1.05;;;;;;;16.94;45.61;99704.88;10393329;28;20050;-60
2024/04/07 04:42:14;;;;;;;1.85;1.08;;;;;;;16.98;44.14;99700.16;10373011;28;20052;-60
2024/04/07 04:47:15;;;;;;;3.03;1.00;;;;;;;16.98;44.67;99695.72;10392959;28;20496;-59
2024/04/07 04:52:16;;;;;;;3.10;1.00;;;;;;;17.14;43.43;99697.78;10392898;28;20563;-59
2024/04/07 04:57:17;;;;;;;0.90;0.73;;;;;;;17.23;43.67;99701.41;10392003;28;20060;-59
2024/04/07 05:02:19;;;;;;;2.20;0.80;;;;;;;17.17;43.50;99708.09;10390517;28;20048;-60
2024/04/07 05:07:20;;;;;;;1.40;0.90;;;;;;;17.21;43.75;99695.44;10390512;28;20476;-60
2024/04/07 05:12:21;;;;;;;3.83;1.23;;;;;;;17.25;43.28;99717.97;10370961;28;20091;-59
2024/04/07 05:17:23;;;;;;;2.25;1.00;;;;;;;17.30;43.29;99731.63;10388018;28;20045;-59
2024/04/07 05:22:24;;;;;;;2.92;1.13;;;;;;;17.29;43.20;99733.41;10355515;28;20520;-60
2024/04/07 05:27:25;;;;;;;1.67;0.90;;;;;;;17.37;43.43;99752.09;10377495;28;20041;-59
2024/04/07 05:32:27;;;;;;;3.97;1.63;;;;;;;17.49;42.93;99750.13;10357780;28;20418;-59
2024/04/07 05:37:28;;;;;;;4.95;0.77;;;;;;;17.70;42.66;99754.31;10372752;28;20052;-59
2024/04/07 05:42:28;;;;;;;4.15;1.98;;;;;;;17.83;42.67;99780.47;10374483;28;20046;-59
2024/04/07 05:47:29;;;;;;;4.72;1.30;;;;;;;18.11;42.39;99808.72;10373976;28;20041;-59
2024/04/07 05:52:31;;;;;;;2.20;1.10;;;;;;;18.36;42.07;99826.63;10374465;28;20056;-60
2024/04/07 05:57:32;;;;;;;2.72;1.08;;;;;;;18.58;41.95;99836.88;10386924;28;20049;-59
2024/04/07 06:02:34;;;;;;;5.30;1.20;;;;;;;18.69;41.89;99845.66;10388026;28;20128;-60
2024/04/07 06:07:35;;;;;;;3.47;1.15;;;;;;;18.63;41.73;99837.28;10370069;28;20277;-60
2024/04/07 06:12:36;;;;;;;2.10;1.02;;;;;;;19.03;41.58;99842.28;10372971;28;20414;-60
2024/04/07 06:17:37;;;;;;;1.50;0.90;;;;;;;19.27;41.62;99871.78;10386722;28;20033;-60
2024/04/07 06:22:38;;;;;;;3.03;1.13;;;;;;;19.48;42.21;99876.81;10388216;28;20124;-59
2024/04/07 06:27:39;;;;;;;3.50;1.25;;;;;;;19.36;42.35;99891.22;10388580;28;20469;-60
2024/04/07 06:32:40;;;;;;;2.28;0.95;;;;;;;19.43;42.45;99898.47;10386762;28;20541;-60
2024/04/07 06:37:41;;;;;;;4.45;1.00;;;;;;;19.18;42.07;99930.97;10387471;28;20045;-59
2024/04/07 06:42:42;;;;;;;3.58;1.10;;;;;;;19.23;41.55;99927.88;10385810;28;20555;-59
2024/04/07 06:47:43;;;;;;;2.40;1.30;;;;;;;19.33;41.61;99929.53;10368907;28;20041;-59
2024/04/07 06:52:44;;;;;;;2.05;0.95;;;;;;;19.39;41.39;99934.22;10383977;28;20068;-60
2024/04/07 06:57:45;;;;;;;2.38;1.00;;;;;;;19.48;40.69;99959.84;10383210;28;20133;-59
2024/04/07 07:02:46;;;;;;;5.40;2.42;;;;;;;19.64;41.02;99945.13;10386180;28;20095;-60
2024/04/07 07:07:47;;;;;;;1.88;1.02;;;;;;;19.76;41.88;99935.97;10381429;28;20057;-60
2024/04/07 07:12:48;;;;;;;2.00;0.80;;;;;;;19.88;41.43;99921.53;10385586;28;20516;-60
2024/04/07 07:17:49;;;;;;;3.63;1.25;;;;;;;20.05;41.79;99912.75;10366578;28;20049;-60
2024/04/07 07:22:50;;;;;;;2.72;1.02;;;;;;;20.28;41.14;99922.72;10367250;28;20112;-59
2024/04/07 07:27:51;;;;;;;2.97;1.00;;;;;;;20.48;41.32;99930.53;10382863;28;20041;-60
2024/04/07 07:32:52;;;;;;;3.00;1.08;;;;;;;20.64;41.28;99920.03;10385430;28;20061;-60
2024/04/07 07:37:53;;;;;;;4.20;1.45;;;;;;;20.91;41.10;99944.63;10365406;28;20486;-60
2024/04/07 07:42:54;;;;;;;1.52;0.80;;;;;;;21.34;41.29;99940.22;10386943;28;20045;-60
2024/04/07 07:47:56;;;;;;;5.15;1.00;;;;;;;21.64;40.41;99942.34;10384358;28;20036;-59
2024/04/07 07:52:58;;;;;;;4.20;1.23;;;;;;;22.07;39.44;99959.97;10368743;28;20051;-60
2024/04/07 07:57:59;;;;;;;4.70;1.20;;;;;;;22.41;38.92;99948.13;10375379;28;20046;-59
2024/04/07 08:03:00;;;;;;;4.45;1.20;;;;;;;22.56;38.20;99953.63;10393537;28;20273;-60
2024/04/07 08:08:01;;;;;;;3.03;1.02;;;;;;;22.45;37.66;99969.97;10388092;28;20269;-60
2024/04/07 08:13:02;;;;;;;2.13;1.33;;;;;;;22.00;38.50;99970.38;10370496;28;20060;-59
2024/04/07 08:18:03;;;;;;;7.50;1.13;;;;;;;22.02;38.83;99973.72;10388618;28;20084;-60
2024/04/07 08:23:05;;;;;;;2.97;1.10;;;;;;;22.08;38.93;99978.44;10388486;28;20059;-60
2024/04/07 08:28:06;;;;;;;3.72;1.10;;;;;;;21.86;39.65;99985.16;10389470;28;20053;-60
2024/04/07 08:33:07;;;;;;;4.00;1.27;;;;;;;22.44;39.47;99986.94;10371193;28;20140;-60
2024/04/07 08:38:08;;;;;;;4.78;1.30;;;;;;;23.23;38.25;99992.38;10387885;28;20132;-60
2024/04/07 08:43:11;;;;;;;0.98;0.82;;;;;;;23.57;37.86;99990.31;10372615;28;20041;-59
2024/04/07 08:48:14;;;;;;;4.65;1.60;;;;;;;23.12;38.62;100001.59;10389711;28;20114;-59
2024/04/07 08:53:17;;;;;;;4.45;1.58;;;;;;;23.21;38.20;100013.06;10390326;28;20037;-59
2024/04/07 08:58:18;;;;;;;4.50;1.45;;;;;;;23.27;37.91;100010.56;10371162;28;20049;-58
2024/04/07 09:03:20;;;;;;;2.13;1.10;;;;;;;23.34;37.82;99992.88;10365841;28;20042;-58
2024/04/07 09:08:21;;;;;;;1.80;1.00;;;;;;;23.73;36.72;99984.91;10388037;28;20771;-59
2024/04/07 09:13:23;;;;;;;3.42;1.48;;;;;;;23.70;36.15;99990.56;10384136;28;20403;-59
2024/04/07 09:18:24;;;;;;;2.55;1.20;;;;;;;23.60;36.04;99981.94;10373437;28;20098;-63
2024/04/07 09:23:25;;;;;;;4.28;0.95;;;;;;;23.78;35.13;99976.38;10356591;28;20612;-63
2024/04/07 09:28:26;;;;;;;1.83;0.70;;;;;;;24.20;34.71;99968.78;10421728;28;20056;-64
2024/04/07 09:33:30;;;;;;;1.23;0.50;;;;;;;24.57;33.66;99968.00;10389359;28;20136;-63
2024/04/07 09:38:31;;;;;;;1.42;0.95;;;;;;;24.86;33.60;99968.91;10354045;28;20453;-63
2024/04/07 09:43:35;;;;;;;5.10;0.90;;;;;;;24.75;32.79;99971.22;10368426;28;20060;-63
2024/04/07 09:48:38;;;;;;;3.05;0.70;;;;;;;24.82;32.24;99972.97;10384777;28;20468;-63
2024/04/07 09:54:09;;;;;;;2.70;0.85;;;;;;;24.89;31.25;99962.38;10377726;28;20056;-64
2024/04/07 09:59:10;;;;;;;1.15;0.80;;;;;;;24.74;31.34;99969.53;10350693;28;20041;-63
2024/04/07 10:04:12;;;;;;;2.58;0.68;;;;;;;24.65;31.23;99962.56;10387360;28;20045;-64
2024/04/07 10:09:13;;;;;;;3.80;0.68;;;;;;;24.61;31.67;99964.75;10369747;28;20049;-63
2024/04/07 10:14:18;;;;;;;3.58;0.77;;;;;;;24.61;29.93;99950.59;10369931;28;20405;-63
2024/04/07 10:19:23;;;;;;;2.92;0.52;;;;;;;24.71;31.40;99951.16;10384291;28;20049;-64
2024/04/07 10:24:25;;;;;;;2.05;0.52;;;;;;;24.72;30.98;99950.16;10387243;28;20049;-63
2024/04/07 10:29:32;;;;;;;0.50;0.40;;;;;;;24.55;29.73;99944.09;10384320;28;20045;-63
2024/04/07 10:34:33;;;;;;;1.58;0.50;;;;;;;24.47;29.70;99938.00;10386672;28;20049;-64
2024/04/07 10:39:35;;;;;;;1.88;0.63;;;;;;;24.40;29.63;99929.03;10391126;28;20048;-63
2024/04/07 10:44:37;;;;;;;2.90;0.90;;;;;;;24.61;29.61;99931.88;10384793;28;20053;-63
2024/04/07 10:49:38;;;;;;;1.20;0.65;;;;;;;24.79;29.71;99927.03;10384812;28;20507;-64
2024/04/07 10:54:39;;;;;;;0.85;0.77;;;;;;;24.81;29.75;99927.69;10369053;28;20172;-63
2024/04/07 10:59:40;;;;;;;1.30;0.80;;;;;;;24.62;29.58;99917.47;10383976;28;20164;-64
2024/04/07 11:04:46;;;;;;;1.00;0.50;;;;;;;24.41;29.34;99920.00;10370238;28;20046;-64
2024/04/07 11:09:47;;;;;;;1.70;1.00;;;;;;;24.53;30.26;99943.44;10383918;28;20484;-63
2024/04/07 11:14:48;;;;;;;1.75;0.73;;;;;;;24.60;30.31;99932.84;10364164;28;20054;-64
2024/04/07 11:19:53;;;;;;;3.17;0.70;;;;;;;24.75;29.41;99915.03;10380037;28;20280;-64
2024/04/07 11:24:54;;;;;;;2.90;1.30;;;;;;;24.57;30.29;99920.66;10378898;28;20049;-63
2024/04/07 11:29:55;;;;;;;1.33;0.80;;;;;;;24.43;30.72;99920.66;10369931;28;20485;-64
2024/04/07 11:34:56;;;;;;;3.80;1.42;;;;;;;24.34;30.64;99913.72;10354290;28;20137;-64
2024/04/07 11:39:57;;;;;;;2.13;0.85;;;;;;;24.22;30.00;99924.84;10369027;28;20556;-64
2024/04/07 11:44:58;;;;;;;5.03;1.27;;;;;;;24.18;30.88;99925.38;10386651;28;20042;-64
2024/04/07 11:49:59;;;;;;;2.88;1.00;;;;;;;24.21;30.82;99919.66;10388852;28;20401;-65
2024/04/07 11:55:00;;;;;;;1.58;0.80;;;;;;;24.54;30.62;99905.00;10374738;28;20128;-65
2024/04/07 12:00:04;;;;;;;1.30;0.77;;;;;;;24.73;30.50;99904.53;10387312;28;20049;-64
2024/04/07 12:05:13;;;;;;;1.80;0.90;;;;;;;25.10;29.21;99908.97;10391636;28;20057;-65
2024/04/07 12:10:14;;;;;;;4.32;1.50;;;;;;;25.18;29.83;99908.03;10375014;28;20048;-64
2024/04/07 12:15:15;;;;;;;3.95;1.35;;;;;;;25.04;30.07;99897.13;10390748;28;20148;-64
2024/04/07 12:20:17;;;;;;;3.40;0.93;;;;;;;25.25;30.09;99884.84;10390237;28;20053;-65
2024/04/07 12:25:18;;;;;;;6.30;0.98;;;;;;;25.38;30.01;99860.97;10373393;28;20045;-65
2024/04/07 12:30:19;;;;;;;2.38;0.70;;;;;;;25.50;29.81;99859.44;10389503;28;20049;-66
2024/04/07 12:35:20;;;;;;;1.73;1.05;;;;;;;25.64;30.01;99850.53;10390289;28;20045;-65
2024/04/07 12:40:21;;;;;;;3.10;1.50;;;;;;;25.61;30.00;99849.06;10388323;28;20140;-65
2024/04/07 12:45:22;;;;;;;2.88;1.02;;;;;;;25.51;30.27;99856.56;10388244;28;20560;-65
2024/04/07 12:50:23;;;;;;;1.65;0.80;;;;;;;25.54;30.09;99834.78;10390211;28;20773;-65
2024/04/07 12:55:24;;;;;;;2.80;1.35;;;;;;;25.55;30.39;99836.41;10391086;28;20050;-65
2024/04/07 13:00:27;;;;;;;2.17;0.90;;;;;;;25.57;30.22;99820.19;10374530;28;20046;-64
2024/04/07 13:05:28;;;;;;;2.80;0.88;;;;;;;25.78;30.44;99804.94;10393241;28;20041;-65
2024/04/07 13:10:30;;;;;;;1.33;0.73;;;;;;;25.89;30.13;99785.63;10392378;28;20037;-65
2024/04/07 13:15:32;;;;;;;3.28;0.98;;;;;;;25.86;30.15;99788.72;10390343;28;20057;-64
2024/04/07 13:20:32;;;;;;;5.50;1.40;;;;;;;25.98;30.37;99781.00;10394449;28;20570;-65
2024/04/07 13:25:33;;;;;;;1.92;1.00;;;;;;;26.00;30.00;99778.16;10375607;28;20284;-66
2024/04/07 13:30:35;;;;;;;3.15;1.20;;;;;;;26.01;30.54;99758.34;10391734;28;20473;-66
2024/04/07 13:35:36;;;;;;;2.35;1.00;;;;;;;26.07;30.44;99753.06;10391542;28;20452;-66
2024/04/07 13:40:37;;;;;;;3.30;1.20;;;;;;;26.12;30.20;99741.75;10390210;28;20045;-64
2024/04/07 13:45:38;;;;;;;2.28;1.00;;;;;;;25.97;30.29;99743.69;10390932;28;20046;-64
2024/04/07 13:50:39;;;;;;;5.53;1.20;;;;;;;26.03;30.24;99749.09;10374113;28;20037;-64
2024/04/07 13:55:40;;;;;;;2.65;0.95;;;;;;;26.23;29.72;99743.88;10390538;28;20033;-64
2024/04/07 14:00:42;;;;;;;5.22;1.17;;;;;;;26.30;29.74;99734.84;10390614;28;20528;-64
2024/04/07 14:05:43;;;;;;;2.72;0.90;;;;;;;26.30;30.47;99723.31;10365981;28;20298;-64
2024/04/07 14:10:46;;;;;;;3.63;1.00;;;;;;;26.21;31.75;99721.78;10373588;28;20099;-64
2024/04/07 14:15:47;;;;;;;2.67;1.10;;;;;;;26.05;31.50;99714.06;10390565;28;20269;-64
2024/04/07 14:20:47;;;;;;;5.72;1.25;;;;;;;26.09;31.64;99713.47;10389307;28;20057;-65
2024/04/07 14:25:48;;;;;;;2.85;1.10;;;;;;;26.25;31.71;99697.09;10390564;28;20409;-65
2024/04/07 14:30:49;;;;;;;3.33;1.00;;;;;;;26.17;31.50;99686.53;10389331;28;20050;-65
2024/04/07 14:35:50;;;;;;;5.85;1.35;;;;;;;26.21;31.74;99668.19;10389557;28;20057;-65
2024/04/07 14:40:51;;;;;;;2.28;1.10;;;;;;;26.32;32.41;99676.47;10357086;28;20156;-65
2024/04/07 14:45:57;;;;;;;5.93;1.15;;;;;;;25.86;31.43;99670.00;10390262;28;20791;-65
2024/04/07 14:51:02;;;;;;;3.40;1.15;;;;;;;25.46;33.00;99671.56;10372447;28;20042;-65
2024/04/07 14:56:03;;;;;;;6.22;1.40;;;;;;;25.26;32.83;99667.00;10389319;28;20038;-64
2024/04/07 15:01:06;;;;;;;3.17;1.33;;;;;;;25.17;32.97;99658.28;10390021;28;20063;-65
2024/04/07 15:06:07;;;;;;;3.42;1.10;;;;;;;25.15;32.79;99663.00;10381206;28;20037;-64
2024/04/07 15:11:08;;;;;;;3.55;1.08;;;;;;;25.34;32.81;99657.03;10380767;28;20053;-65
2024/04/07 15:16:09;;;;;;;1.58;0.80;;;;;;;25.50;32.29;99651.41;10397562;28;20061;-64
2024/04/07 15:21:10;;;;;;;7.35;1.70;;;;;;;25.52;32.17;99644.00;10390854;28;20119;-65
2024/04/07 15:26:13;;;;;;;5.35;1.23;;;;;;;25.58;32.07;99635.19;10392910;28;20405;-65
2024/04/07 15:31:14;;;;;;;1.88;1.08;;;;;;;25.41;31.78;99627.63;10377316;28;20053;-64
2024/04/07 15:36:15;;;;;;;4.10;1.10;;;;;;;25.39;31.61;99627.81;10392321;28;20549;-65
2024/04/07 15:41:16;;;;;;;3.95;1.73;;;;;;;25.26;31.91;99637.56;10395438;28;20049;-65
2024/04/07 15:46:17;;;;;;;5.90;1.30;;;;;;;24.91;31.16;99625.91;10396430;28;20389;-65
2024/04/07 15:51:18;;;;;;;5.03;1.33;;;;;;;24.98;32.29;99622.28;10378764;28;20057;-64
2024/04/07 15:56:20;;;;;;;3.22;1.10;;;;;;;25.11;32.42;99621.59;10396088;28;20526;-66
2024/04/07 16:01:23;;;;;;;5.53;2.17;;;;;;;24.95;32.29;99616.50;10395875;28;20053;-65
2024/04/07 16:06:24;;;;;;;4.43;1.67;;;;;;;24.91;32.71;99610.69;10394737;28;20099;-65
2024/04/07 16:11:25;;;;;;;3.78;1.10;;;;;;;24.82;32.87;99609.16;10394468;28;20038;-65
2024/04/07 16:16:26;;;;;;;4.93;1.20;;;;;;;24.79;33.45;99609.56;10390847;28;20049;-65
2024/04/07 16:21:27;;;;;;;5.00;1.20;;;;;;;24.68;33.76;99603.81;10391256;28;20046;-65
2024/04/07 16:26:28;;;;;;;1.25;0.82;;;;;;;24.73;33.82;99598.78;10391914;28;20056;-65
2024/04/07 16:31:29;;;;;;;2.33;1.00;;;;;;;24.67;34.11;99595.00;10394229;28;20514;-65
2024/04/07 16:36:30;;;;;;;5.05;0.90;;;;;;;24.52;33.67;99588.84;10394812;28;20069;-65
2024/04/07 16:41:31;;;;;;;3.47;1.00;;;;;;;24.43;33.80;99592.66;10393399;28;20045;-65
2024/04/07 16:46:36;;;;;;;3.70;1.20;;;;;;;24.32;34.20;99574.44;10394568;28;20046;-64
2024/04/07 16:51:37;;;;;;;2.08;1.02;;;;;;;24.08;33.92;99588.94;10393251;28;20049;-64
2024/04/07 16:56:38;;;;;;;5.60;1.20;;;;;;;23.97;34.31;99577.88;10393344;28;20174;-65
2024/04/07 17:01:40;;;;;;;2.55;1.10;;;;;;;23.74;34.55;99585.97;10393501;28;20687;-65
2024/04/07 17:06:41;;;;;;;2.67;1.15;;;;;;;23.58;34.72;99580.81;10388788;28;20124;-65
2024/04/07 17:11:43;;;;;;;3.45;1.13;;;;;;;23.41;34.73;99579.34;10372536;28;20045;-65
2024/04/07 17:16:44;;;;;;;4.13;1.08;;;;;;;23.22;35.20;99579.81;10390315;28;20136;-65
2024/04/07 17:21:47;;;;;;;3.55;1.48;;;;;;;23.00;35.21;99583.34;10371562;28;20123;-65
2024/04/07 17:26:48;;;;;;;4.70;1.15;;;;;;;22.87;35.36;99567.94;10388142;28;20037;-64
2024/04/07 17:31:50;;;;;;;3.30;1.20;;;;;;;22.65;35.71;99550.94;10356883;28;20049;-64
2024/04/07 17:36:51;;;;;;;3.67;1.58;;;;;;;22.55;36.03;99545.00;10389638;28;20044;-65
2024/04/07 17:41:52;;;;;;;4.80;1.42;;;;;;;22.40;36.34;99548.59;10387027;28;20121;-64
2024/04/07 17:46:55;;;;;;;3.00;1.00;;;;;;;22.31;36.78;99539.81;10371467;28;20041;-63
2024/04/07 17:51:56;;;;;;;4.57;1.50;;;;;;;22.21;36.96;99525.88;10373661;28;20045;-63
2024/04/07 17:56:58;;;;;;;5.63;1.65;;;;;;;22.16;37.17;99551.41;10387790;28;20143;-62
2024/04/07 18:02:03;;;;;;;4.00;1.30;;;;;;;22.03;37.40;99548.41;10386809;28;20054;-63
2024/04/07 18:07:04;;;;;;;4.03;1.10;;;;;;;21.90;37.79;99541.81;10370102;28;20045;-63
2024/04/07 18:12:06;;;;;;;4.00;1.17;;;;;;;21.68;38.29;99539.13;10385159;28;20056;-63
2024/04/07 18:17:08;;;;;;;1.98;0.90;;;;;;;21.49;39.09;99535.00;10386091;28;20809;-63
2024/04/07 18:22:10;;;;;;;3.67;1.40;;;;;;;21.43;38.69;99549.00;10386527;28;20159;-63
2024/04/07 18:27:10;;;;;;;2.30;1.33;;;;;;;21.33;38.98;99547.50;10369469;28;20054;-63
2024/04/07 18:32:11;;;;;;;2.30;1.20;;;;;;;21.16;39.12;99556.47;10382133;28;20410;-63
2024/04/07 18:37:12;;;;;;;4.13;2.00;;;;;;;20.90;39.71;99548.69;10365781;28;20045;-63
2024/04/07 18:42:13;;;;;;;3.90;1.05;;;;;;;20.76;39.58;99541.38;10386919;28;20045;-62
2024/04/07 18:47:14;;;;;;;3.30;1.58;;;;;;;20.57;40.00;99545.16;10371458;28;20046;-62
2024/04/07 18:52:16;;;;;;;3.78;1.40;;;;;;;20.45;40.66;99543.81;10383953;28;20053;-62
2024/04/07 18:57:17;;;;;;;2.58;1.05;;;;;;;20.43;41.03;99535.16;10354560;28;20464;-62
2024/04/07 19:02:20;;;;;;;2.13;1.25;;;;;;;20.40;41.82;99538.13;10363222;28;20397;-63
2024/04/07 19:07:22;;;;;;;3.60;1.50;;;;;;;20.34;41.87;99530.03;10363685;28;20637;-63
2024/04/07 19:12:23;;;;;;;4.43;1.55;;;;;;;20.30;41.92;99534.81;10384464;28;20144;-62
2024/04/07 19:17:24;;;;;;;7.78;1.92;;;;;;;20.27;42.36;99545.78;10384280;28;20420;-63
2024/04/07 19:22:25;;;;;;;4.65;1.55;;;;;;;20.14;42.85;99540.06;10367072;28;20555;-63
2024/04/07 19:27:26;;;;;;;3.13;1.58;;;;;;;20.05;43.31;99536.56;10364677;28;20046;-62
2024/04/07 19:32:27;;;;;;;5.07;1.45;;;;;;;19.97;43.59;99528.56;10381402;28;20433;-62
2024/04/07 19:37:28;;;;;;;3.78;1.38;;;;;;;19.99;43.13;99521.28;10385666;28;20049;-62
2024/04/07 19:42:31;;;;;;;4.68;1.40;;;;;;;19.86;43.45;99520.09;10384401;28;20053;-63
2024/04/07 19:47:32;;;;;;;3.60;1.40;;;;;;;19.83;43.63;99505.31;10366046;28;20049;-62
2024/04/07 19:52:33;;;;;;;4.93;1.30;;;;;;;19.70;43.58;99486.34;10379898;28;20056;-63
2024/04/07 19:57:34;;;;;;;2.92;1.38;;;;;;;19.64;44.35;99502.91;10378934;28;20061;-63
2024/04/07 20:02:35;;;;;;;3.88;1.92;;;;;;;19.67;44.54;99501.72;10395795;28;20038;-63
2024/04/07 20:07:37;;;;;;;3.25;1.20;;;;;;;19.58;44.68;99484.13;10395373;28;20797;-62
2024/04/07 20:12:38;;;;;;;5.32;1.00;;;;;;;19.27;45.29;99482.00;10394315;28;20908;-62
2024/04/07 20:17:41;;;;;;;6.75;1.35;;;;;;;19.25;45.45;99464.56;10378189;28;20100;-63
2024/04/07 20:22:42;;;;;;;4.10;1.83;;;;;;;19.13;45.49;99450.78;10378464;28;20497;-63
2024/04/07 20:27:43;;;;;;;3.80;1.58;;;;;;;19.04;46.47;99453.50;10393919;28;20047;-63
2024/04/07 20:32:44;;;;;;;3.55;1.50;;;;;;;18.89;46.61;99453.22;10395272;28;20401;-63
2024/04/07 20:37:46;;;;;;;4.85;1.40;;;;;;;18.98;46.92;99444.34;10394166;28;20052;-63
2024/04/07 20:42:47;;;;;;;5.43;1.50;;;;;;;19.03;47.01;99441.25;10392184;28;20490;-63
2024/04/07 20:47:48;;;;;;;3.92;1.48;;;;;;;19.06;46.71;99452.38;10377566;28;20191;-63
2024/04/07 20:52:50;;;;;;;3.13;1.00;;;;;;;19.00;47.21;99458.25;10393083;28;20466;-63
2024/04/07 20:57:51;;;;;;;3.20;1.35;;;;;;;18.89;47.68;99449.75;10393887;28;20050;-63
2024/04/07 21:02:55;;;;;;;6.55;1.90;;;;;;;18.75;47.60;99435.25;10392433;28;20045;-62
2024/04/07 21:07:56;;;;;;;4.13;1.45;;;;;;;18.67;47.59;99440.47;10393286;28;20042;-63
2024/04/07 21:12:58;;;;;;;2.45;1.60;;;;;;;18.78;47.71;99437.59;10390032;28;20046;-62
2024/04/07 21:18:00;;;;;;;4.00;1.40;;;;;;;18.80;48.06;99427.66;10393112;28;20037;-63
2024/04/07 21:23:02;;;;;;;1.73;1.10;;;;;;;18.78;47.96;99434.94;10392121;28;20037;-62
2024/04/07 21:28:06;;;;;;;3.67;1.27;;;;;;;18.72;48.22;99432.91;10360197;28;20059;-63
2024/04/07 21:33:07;;;;;;;1.95;1.33;;;;;;;18.68;48.34;99426.28;10391090;28;20091;-62
2024/04/07 21:38:10;;;;;;;3.58;1.40;;;;;;;18.66;48.54;99422.94;10391747;28;20063;-62
2024/04/07 21:43:12;;;;;;;2.47;1.20;;;;;;;18.47;48.78;99413.38;10389971;28;20816;-63
2024/04/07 21:48:13;;;;;;;2.67;1.42;;;;;;;18.39;48.88;99399.22;10391900;28;20049;-63
2024/04/07 21:53:14;;;;;;;3.33;1.33;;;;;;;18.38;49.24;99397.59;10391484;28;20053;-62
2024/04/07 21:58:15;;;;;;;5.70;1.40;;;;;;;18.18;49.57;99404.00;10391466;28;20498;-62
2024/04/07 22:03:16;;;;;;;6.60;2.20;;;;;;;18.21;49.97;99419.59;10368378;28;20144;-63
2024/04/07 22:08:17;;;;;;;4.05;2.10;;;;;;;18.10;50.13;99411.84;10390701;28;20049;-63
2024/04/07 22:13:18;;;;;;;2.45;1.40;;;;;;;18.09;50.22;99410.19;10389409;28;20132;-62
2024/04/07 22:18:25;;;;;;;4.45;1.80;;;;;;;18.09;50.76;99418.13;10390869;28;20041;-62
2024/04/07 22:23:26;;;;;;;4.63;1.58;;;;;;;17.96;50.74;99421.16;10390059;28;20041;-63
2024/04/07 22:28:27;;;;;;;3.97;1.40;;;;;;;17.89;51.02;99411.34;10390814;28;20056;-62
2024/04/07 22:33:29;;;;;;;4.97;1.50;;;;;;;17.88;50.78;99417.59;10389895;28;20057;-62
2024/04/07 22:38:30;;;;;;;2.55;1.30;;;;;;;17.75;51.28;99408.22;10374436;28;20509;-63
2024/04/07 22:43:31;;;;;;;5.43;1.40;;;;;;;17.82;51.13;99390.78;10390055;28;20278;-63
2024/04/07 22:48:32;;;;;;;2.92;1.33;;;;;;;17.63;51.40;99387.41;10389757;28;20049;-62
2024/04/07 22:53:33;;;;;;;3.20;1.52;;;;;;;17.59;51.62;99378.94;10389463;28;20046;-62
2024/04/07 22:58:34;;;;;;;5.53;1.77;;;;;;;17.50;52.05;99377.22;10390663;28;20155;-62
2024/04/07 23:03:37;;;;;;;4.10;1.33;;;;;;;17.52;51.79;99379.69;10388840;28;20409;-62
2024/04/07 23:08:39;;;;;;;4.40;1.20;;;;;;;17.53;52.01;99374.25;10389044;28;20057;-62
2024/04/07 23:13:40;;;;;;;2.53;1.15;;;;;;;17.55;51.95;99359.06;10389547;28;20144;-62
2024/04/07 23:18:41;;;;;;;2.20;1.20;;;;;;;17.58;52.07;99360.59;10372729;28;20041;-63
2024/04/07 23:23:43;;;;;;;5.25;1.20;;;;;;;17.65;51.88;99359.00;10392530;28;20259;-63